Time;durP1;ratioP1;P1;durP2;ratioP2;P2;SDS_P1;SDS_P2;PMS_P1;PMS_P2;Temp;Humidity;BMP_temperature;BMP_pressure;BME280_temperature;BME280_humidity;BME280_pressure;Samples;Min_cycle;Max_cycle;Signal;HPM_P1;HPM_P2
2022/11/04 00:01:37;;;;;;;9.68;8.68;;;11.20;99.90;;;;;;5058955;28;20040;-67
2022/11/04 00:04:02;;;;;;;12.60;7.97;;;11.20;99.90;;;;;;5056639;28;20154;-67
2022/11/04 00:06:28;;;;;;;8.25;6.57;;;11.20;99.90;;;;;;5057520;28;20119;-67
2022/11/04 00:08:56;;;;;;;7.03;4.97;;;11.20;99.90;;;;;;5061867;28;20039;-67
2022/11/04 00:14:08;;;;;;;3.45;2.40;;;11.10;99.90;;;;;;5040527;28;20045;-67
2022/11/04 00:19:19;;;;;;;5.07;2.78;;;11.00;99.90;;;;;;5061320;28;20056;-66
2022/11/04 00:30:00;;;;;;;3.90;1.50;;;10.80;99.90;;;;;;5038169;28;20109;-67
2022/11/04 00:35:11;;;;;;;2.60;1.10;;;10.60;99.90;;;;;;5060618;28;20621;-67
2022/11/04 00:37:41;;;;;;;3.03;0.80;;;10.60;99.90;;;;;;5061607;28;20029;-66
2022/11/04 00:40:08;;;;;;;2.33;0.60;;;10.60;99.90;;;;;;5055817;28;20045;-67
2022/11/04 00:42:34;;;;;;;1.73;0.30;;;10.50;99.90;;;;;;5059430;28;20166;-67
2022/11/04 00:45:00;;;;;;;1.60;0.40;;;10.50;99.90;;;;;;5062381;28;20415;-66
2022/11/04 00:47:26;;;;;;;0.82;0.30;;;10.40;99.90;;;;;;5059520;28;20119;-66
2022/11/04 00:49:52;;;;;;;0.65;0.10;;;10.50;99.90;;;;;;5058332;28;20039;-66
2022/11/04 00:52:18;;;;;;;2.50;0.40;;;10.40;99.90;;;;;;5059726;28;20149;-66
2022/11/04 00:54:44;;;;;;;0.82;0.15;;;10.40;99.90;;;;;;5062133;28;20155;-67
2022/11/04 00:57:11;;;;;;;0.77;0.10;;;10.40;99.90;;;;;;5058814;28;20055;-67
2022/11/04 00:59:37;;;;;;;1.70;0.10;;;10.40;99.90;;;;;;5065278;28;20048;-66
2022/11/04 01:02:03;;;;;;;0.47;0.13;;;10.40;99.90;;;;;;5065240;28;20119;-66
2022/11/04 01:04:29;;;;;;;2.05;0.30;;;10.40;99.90;;;;;;5046196;28;20124;-66
2022/11/04 01:06:54;;;;;;;2.30;0.22;;;10.30;99.90;;;;;;5066711;28;20475;-66
2022/11/04 01:09:20;;;;;;;1.17;0.10;;;10.30;99.90;;;;;;5062522;28;20060;-67
2022/11/04 01:11:46;;;;;;;3.63;0.30;;;10.30;99.90;;;;;;5062746;28;20472;-66
2022/11/04 01:14:12;;;;;;;2.08;0.20;;;10.30;99.90;;;;;;5048534;28;20040;-66
2022/11/04 01:16:38;;;;;;;2.03;0.32;;;10.30;99.90;;;;;;5047050;28;20059;-66
2022/11/04 01:19:04;;;;;;;1.50;0.30;;;10.30;99.90;;;;;;5044538;28;20044;-66
2022/11/04 01:21:30;;;;;;;4.65;0.30;;;10.30;99.90;;;;;;5061871;28;20064;-66
2022/11/04 01:23:56;;;;;;;5.25;0.43;;;10.30;99.90;;;;;;5062196;28;20488;-66
2022/11/04 01:26:23;;;;;;;3.33;0.50;;;10.30;99.90;;;;;;5068313;28;20044;-66
2022/11/04 01:28:51;;;;;;;0.88;0.30;;;10.30;99.90;;;;;;5074426;28;20037;-67
2022/11/04 01:31:20;;;;;;;3.08;0.40;;;10.40;99.90;;;;;;5066056;28;20091;-66
2022/11/04 01:33:47;;;;;;;4.25;0.28;;;10.40;99.90;;;;;;5058578;28;20029;-66
2022/11/04 01:36:13;;;;;;;8.52;0.40;;;10.40;99.90;;;;;;5069589;28;20044;-66
2022/11/04 01:38:39;;;;;;;4.60;0.40;;;10.40;99.90;;;;;;5051060;28;20123;-67
2022/11/04 01:41:06;;;;;;;2.97;0.22;;;10.40;99.90;;;;;;5062012;28;20508;-66
2022/11/04 01:43:53;;;;;;;3.08;0.40;;;10.40;99.90;;;;;;5065950;28;20448;-66
2022/11/04 01:46:42;;;;;;;4.25;0.40;;;10.40;99.90;;;;;;5063729;28;20040;-66
2022/11/04 01:49:26;;;;;;;2.00;0.30;;;10.50;99.90;;;;;;5059293;28;20044;-66
2022/11/04 01:51:56;;;;;;;2.28;0.40;;;10.40;99.90;;;;;;5046365;28;20040;-67
2022/11/04 01:54:22;;;;;;;2.30;0.22;;;10.50;99.90;;;;;;5058866;28;20457;-66
2022/11/04 01:56:48;;;;;;;2.65;0.17;;;10.50;99.90;;;;;;5047073;28;20048;-67
2022/11/04 01:59:21;;;;;;;3.53;0.20;;;10.50;99.90;;;;;;5045214;28;20040;-66
2022/11/04 02:01:47;;;;;;;1.27;0.10;;;10.50;99.90;;;;;;5048887;28;20075;-66
2022/11/04 02:04:25;;;;;;;3.83;0.10;;;10.40;99.90;;;;;;5043131;28;20488;-66
2022/11/04 02:06:57;;;;;;;1.63;0.10;;;10.40;99.90;;;;;;5063808;28;20040;-67
2022/11/04 02:09:26;;;;;;;4.45;0.20;;;10.40;99.90;;;;;;5043048;28;20154;-67
2022/11/04 02:14:57;;;;;;;8.95;1.65;;;10.40;99.90;;;;;;4998300;28;20133;-66
2022/11/04 02:17:56;;;;;;;3.95;0.70;;;10.30;99.90;;;;;;5008129;28;20053;-67
2022/11/04 02:20:32;;;;;;;8.23;0.90;;;10.30;99.90;;;;;;5026260;28;20393;-68
2022/11/04 02:23:10;;;;;;;4.45;0.32;;;10.40;99.90;;;;;;5050256;28;20049;-67
2022/11/04 02:26:05;;;;;;;3.60;0.50;;;10.30;99.90;;;;;;5049293;28;20045;-67
2022/11/04 02:28:58;;;;;;;3.53;0.30;;;10.30;99.90;;;;;;5065172;28;20044;-67
2022/11/04 02:31:39;;;;;;;5.78;0.20;;;10.30;99.90;;;;;;5060851;28;20040;-67
2022/11/04 02:34:30;;;;;;;6.25;0.28;;;10.30;99.90;;;;;;5040437;28;20122;-66
2022/11/04 02:37:23;;;;;;;6.47;0.57;;;10.30;99.90;;;;;;5060702;28;20424;-66
2022/11/04 02:39:57;;;;;;;2.65;0.20;;;10.30;99.90;;;;;;5062721;28;20110;-66
2022/11/04 02:42:34;;;;;;;2.60;0.40;;;10.30;99.90;;;;;;5060833;28;20113;-67
2022/11/04 02:45:21;;;;;;;5.22;0.30;;;10.30;99.90;;;;;;5048229;28;20102;-67
2022/11/04 02:47:57;;;;;;;3.33;0.50;;;10.30;99.90;;;;;;5063580;28;20443;-67
2022/11/04 02:50:31;;;;;;;3.30;0.50;;;10.30;99.90;;;;;;5063334;28;20056;-67
2022/11/04 02:53:22;;;;;;;3.83;0.75;;;10.30;99.90;;;;;;5042328;28;20261;-67
2022/11/04 02:55:55;;;;;;;5.18;0.70;;;10.30;99.90;;;;;;5050921;28;20406;-67
2022/11/04 02:58:28;;;;;;;5.45;1.13;;;10.30;99.90;;;;;;5049358;28;20117;-66
2022/11/04 03:00:56;;;;;;;3.15;1.10;;;10.30;99.90;;;;;;5057750;28;20044;-67
2022/11/04 03:03:26;;;;;;;3.58;0.93;;;10.30;99.90;;;;;;5046213;28;20116;-68
2022/11/04 03:05:55;;;;;;;6.60;1.02;;;10.30;99.90;;;;;;5057633;28;20067;-67
2022/11/04 03:08:28;;;;;;;6.03;1.20;;;10.30;99.90;;;;;;5061286;28;20061;-66
2022/11/04 03:11:01;;;;;;;5.35;1.30;;;10.30;99.90;;;;;;5058021;28;20080;-68
2022/11/04 03:13:39;;;;;;;6.57;1.05;;;10.30;99.90;;;;;;5062328;28;20052;-67
2022/11/04 03:16:11;;;;;;;4.60;1.00;;;10.30;99.90;;;;;;5061496;28;20033;-67
2022/11/04 03:19:09;;;;;;;2.95;0.85;;;10.20;99.90;;;;;;5049552;28;20036;-67
2022/11/04 03:21:41;;;;;;;7.03;0.93;;;10.20;99.90;;;;;;5059639;28;20071;-67
2022/11/04 03:24:07;;;;;;;3.42;1.08;;;10.20;99.90;;;;;;5050024;28;20110;-68
2022/11/04 03:26:58;;;;;;;5.00;1.25;;;10.20;99.90;;;;;;5061055;28;20090;-67
2022/11/04 03:29:38;;;;;;;4.38;1.10;;;10.20;99.90;;;;;;5049074;28;20102;-67
2022/11/04 03:32:13;;;;;;;6.60;1.20;;;10.20;99.90;;;;;;5035678;28;20119;-66
2022/11/04 03:34:38;;;;;;;;;;;10.20;99.90;;;;;;5062906;28;20045;-66
2022/11/04 03:37:04;;;;;;;7.38;0.65;;;10.10;99.90;;;;;;5059974;28;19951;-66
2022/11/04 03:39:30;;;;;;;3.30;0.43;;;10.10;99.90;;;;;;5034683;28;20111;-65
2022/11/04 03:41:59;;;;;;;2.40;0.30;;;10.10;99.90;;;;;;5055100;28;20044;-66
2022/11/04 03:44:25;;;;;;;2.17;0.20;;;10.00;99.90;;;;;;5065496;28;20506;-67
2022/11/04 03:46:54;;;;;;;4.53;0.22;;;10.00;99.90;;;;;;5058172;28;20159;-66
2022/11/04 03:49:22;;;;;;;1.60;0.38;;;9.90;99.90;;;;;;5050034;28;20051;-66
2022/11/04 03:51:48;;;;;;;3.30;0.40;;;9.90;99.90;;;;;;5059148;28;20098;-66
2022/11/04 03:54:14;;;;;;;2.17;0.20;;;9.90;99.90;;;;;;5063155;28;20044;-66
2022/11/04 03:57:15;;;;;;;3.45;0.30;;;9.80;99.90;;;;;;5039370;28;20052;-67
2022/11/04 03:59:47;;;;;;;2.95;0.20;;;9.80;99.90;;;;;;5046707;28;20037;-67
2022/11/04 04:02:21;;;;;;;1.40;0.22;;;9.80;99.90;;;;;;5042210;28;20100;-67
2022/11/04 04:04:56;;;;;;;3.47;0.20;;;9.80;99.90;;;;;;5059741;28;20075;-66
2022/11/04 04:07:34;;;;;;;2.42;0.40;;;9.80;99.90;;;;;;5059627;28;20428;-67
2022/11/04 04:10:58;;;;;;;2.45;0.40;;;9.80;99.90;;;;;;5042953;28;20048;-66
2022/11/04 04:13:30;;;;;;;3.25;0.45;;;9.80;99.90;;;;;;5053226;28;20041;-67
2022/11/04 04:16:17;;;;;;;1.85;0.25;;;9.70;99.90;;;;;;5049306;28;20368;-67
2022/11/04 04:18:50;;;;;;;2.75;0.40;;;9.70;99.90;;;;;;5053442;28;20451;-67
2022/11/04 04:21:21;;;;;;;5.23;0.43;;;9.70;99.90;;;;;;5059886;28;20600;-68
2022/11/04 04:29:25;;;;;;;3.38;0.60;;;9.80;99.90;;;;;;5060465;28;20582;-67
2022/11/04 04:31:56;;;;;;;3.08;0.40;;;9.80;99.90;;;;;;5059076;28;20073;-66
2022/11/04 04:34:28;;;;;;;1.08;0.20;;;9.80;99.90;;;;;;5042831;28;20052;-66
2022/11/04 04:36:59;;;;;;;2.58;0.20;;;9.80;99.90;;;;;;5065264;28;20047;-66
2022/11/04 04:45:34;;;;;;;3.15;0.45;;;9.80;99.90;;;;;;5067695;28;20108;-66
2022/11/04 04:48:00;;;;;;;1.30;0.20;;;9.80;99.90;;;;;;5067924;28;20037;-67
2022/11/04 04:50:39;;;;;;;4.35;0.28;;;9.70;99.90;;;;;;5064920;28;20048;-66
2022/11/04 04:53:05;;;;;;;1.80;0.20;;;9.70;99.90;;;;;;5049974;28;20028;-67
2022/11/04 04:55:31;;;;;;;4.18;0.22;;;9.70;99.90;;;;;;5047430;28;20476;-67
2022/11/04 04:57:57;;;;;;;0.68;0.10;;;9.70;99.90;;;;;;5050540;28;20785;-67
2022/11/04 05:00:24;;;;;;;2.58;0.20;;;9.70;99.90;;;;;;5067387;28;20136;-67
2022/11/04 05:02:50;;;;;;;1.70;0.30;;;9.70;99.90;;;;;;5065643;28;20670;-67
2022/11/04 05:05:16;;;;;;;2.05;0.20;;;9.60;99.90;;;;;;5048189;28;20040;-67
2022/11/04 05:07:41;;;;;;;4.22;0.30;;;9.60;99.90;;;;;;5051793;28;20413;-68
2022/11/04 05:10:09;;;;;;;2.17;0.30;;;9.50;99.90;;;;;;5062004;28;20049;-67
2022/11/04 05:15:24;;;;;;;1.63;0.20;;;9.40;99.90;;;;;;5061813;28;20079;-68
2022/11/04 05:17:58;;;;;;;4.53;0.40;;;9.40;99.90;;;;;;5050035;28;20041;-67
2022/11/04 05:20:24;;;;;;;4.55;0.28;;;9.30;99.90;;;;;;5068302;28;20051;-68
2022/11/04 05:22:50;;;;;;;7.20;1.02;;;9.30;99.90;;;;;;5065840;28;20040;-67
2022/11/04 05:25:15;;;;;;;3.28;0.40;;;9.30;99.90;;;;;;5048967;28;20035;-68
2022/11/04 05:27:41;;;;;;;1.67;0.45;;;9.30;99.90;;;;;;5067250;28;20080;-67
2022/11/04 05:30:07;;;;;;;1.55;0.20;;;9.30;99.90;;;;;;5061406;28;20056;-69
2022/11/04 05:32:33;;;;;;;2.50;0.50;;;9.30;99.90;;;;;;5062911;28;20086;-68
2022/11/04 05:34:59;;;;;;;2.42;0.30;;;9.30;99.90;;;;;;5048160;28;20049;-68
2022/11/04 05:37:25;;;;;;;3.53;0.47;;;9.20;99.90;;;;;;5065937;28;20035;-68
2022/11/04 05:39:51;;;;;;;6.97;0.52;;;9.20;99.90;;;;;;5070173;28;20040;-68
2022/11/04 05:42:16;;;;;;;2.25;0.35;;;9.10;99.90;;;;;;5070263;28;20036;-68
2022/11/04 05:44:42;;;;;;;3.75;0.30;;;9.00;99.90;;;;;;5058249;28;20434;-67
2022/11/04 05:47:08;;;;;;;4.75;0.50;;;9.00;99.90;;;;;;5048431;28;20049;-68
2022/11/04 05:49:34;;;;;;;6.75;0.85;;;9.00;99.90;;;;;;5063256;28;20037;-67
2022/11/04 05:51:59;;;;;;;4.35;0.32;;;9.00;99.90;;;;;;5045360;28;20040;-68
2022/11/04 05:54:25;;;;;;;2.63;0.50;;;9.00;99.90;;;;;;5047645;28;20213;-69
2022/11/04 05:56:51;;;;;;;2.22;0.40;;;9.00;99.90;;;;;;5059024;28;20471;-67
2022/11/04 05:59:17;;;;;;;3.28;0.40;;;9.00;99.90;;;;;;5041285;28;20404;-69
2022/11/04 06:01:43;;;;;;;3.88;0.40;;;8.90;99.90;;;;;;5046019;28;20041;-68
2022/11/04 06:04:14;;;;;;;1.98;0.30;;;8.90;99.90;;;;;;5033431;28;20040;-68
2022/11/04 06:06:40;;;;;;;3.42;0.30;;;8.80;99.90;;;;;;5058083;28;20033;-68
2022/11/04 06:09:06;;;;;;;2.92;0.30;;;8.70;99.90;;;;;;5047427;28;20036;-67
2022/11/04 06:11:33;;;;;;;4.30;0.47;;;8.70;99.90;;;;;;5064671;28;20037;-68
2022/11/04 06:13:59;;;;;;;2.58;0.40;;;8.70;99.90;;;;;;5065896;28;20072;-67
2022/11/04 06:16:25;;;;;;;4.32;0.50;;;8.70;99.90;;;;;;5063911;28;20113;-68
2022/11/04 06:18:51;;;;;;;1.65;0.30;;;8.70;99.90;;;;;;5062089;28;20062;-67
2022/11/04 06:21:24;;;;;;;1.08;0.20;;;8.70;99.90;;;;;;5063996;28;20686;-67
2022/11/04 06:23:52;;;;;;;2.60;0.40;;;8.70;99.90;;;;;;5060936;28;20070;-67
2022/11/04 06:26:17;;;;;;;4.05;0.32;;;8.50;99.90;;;;;;5061605;28;20145;-67
2022/11/04 06:28:43;;;;;;;2.60;0.30;;;8.50;99.90;;;;;;5062920;28;20479;-67
2022/11/04 06:31:10;;;;;;;1.65;0.10;;;8.40;99.90;;;;;;5061703;28;20360;-68
2022/11/04 06:33:36;;;;;;;2.05;0.30;;;8.40;99.90;;;;;;5057262;28;20037;-68
2022/11/04 06:36:04;;;;;;;3.95;0.35;;;8.40;99.90;;;;;;5065827;28;20035;-67
2022/11/04 06:38:36;;;;;;;2.25;0.30;;;8.30;99.90;;;;;;5041892;28;20044;-68
2022/11/04 06:41:02;;;;;;;2.13;0.45;;;8.30;99.90;;;;;;5062504;28;20041;-67
2022/11/04 06:43:31;;;;;;;2.25;0.30;;;8.10;99.90;;;;;;5062696;28;20037;-67
2022/11/04 06:45:59;;;;;;;5.38;0.40;;;8.10;99.90;;;;;;5061120;28;20040;-67
2022/11/04 06:48:25;;;;;;;2.10;0.52;;;8.10;99.90;;;;;;5045950;28;20045;-68
2022/11/04 06:50:53;;;;;;;1.65;0.57;;;8.00;99.90;;;;;;5046865;28;20129;-68
2022/11/04 06:53:19;;;;;;;1.55;0.70;;;8.00;99.90;;;;;;5032890;28;20048;-67
2022/11/04 06:55:45;;;;;;;3.55;0.98;;;8.00;99.90;;;;;;5053948;28;20514;-68
2022/11/04 06:58:11;;;;;;;6.25;1.10;;;8.00;99.90;;;;;;5037334;28;20041;-67
2022/11/04 07:00:36;;;;;;;3.80;1.20;;;8.10;99.90;;;;;;5038445;28;20444;-66
2022/11/04 07:03:02;;;;;;;3.03;0.95;;;8.10;99.90;;;;;;5038510;28;20044;-66
2022/11/04 07:05:28;;;;;;;4.18;1.23;;;8.10;99.90;;;;;;5054777;28;20126;-66
2022/11/04 07:07:54;;;;;;;4.18;1.30;;;8.10;99.90;;;;;;5056457;28;20039;-67
2022/11/04 07:10:19;;;;;;;7.22;1.08;;;8.00;99.90;;;;;;5048604;28;20451;-67
2022/11/04 07:12:45;;;;;;;5.03;1.02;;;8.10;99.90;;;;;;5062075;28;20052;-67
2022/11/04 07:15:11;;;;;;;2.95;0.82;;;8.10;99.90;;;;;;5048220;28;20510;-66
2022/11/04 07:17:38;;;;;;;1.52;0.60;;;8.10;99.90;;;;;;5033510;28;20053;-66
2022/11/04 07:20:04;;;;;;;4.28;0.60;;;8.10;99.90;;;;;;5060209;28;20102;-65
2022/11/04 07:22:30;;;;;;;7.82;1.60;;;8.30;99.90;;;;;;5047738;28;20127;-66
2022/11/04 07:24:56;;;;;;;3.75;1.00;;;8.40;99.90;;;;;;5065302;28;20435;-66
2022/11/04 07:27:22;;;;;;;7.03;0.90;;;8.60;99.90;;;;;;5065733;28;20065;-66
2022/11/04 07:29:47;;;;;;;10.90;2.00;;;9.10;99.90;;;;;;5060581;28;20083;-66
2022/11/04 07:32:13;;;;;;;2.50;0.68;;;9.50;99.90;;;;;;5063920;28;20036;-66
2022/11/04 07:34:39;;;;;;;2.13;0.63;;;9.80;99.90;;;;;;5044113;28;20079;-66
2022/11/04 07:37:05;;;;;;;2.75;0.60;;;9.80;99.90;;;;;;5064274;28;20103;-66
2022/11/04 07:39:30;;;;;;;2.13;0.50;;;9.60;99.90;;;;;;5044864;28;20067;-66
2022/11/04 07:41:56;;;;;;;5.00;0.55;;;9.40;99.90;;;;;;5067255;28;20078;-66
2022/11/04 07:44:22;;;;;;;4.18;0.80;;;9.30;99.90;;;;;;5050312;28;20126;-65
2022/11/04 07:46:48;;;;;;;4.88;0.88;;;9.20;99.90;;;;;;5047188;28;20060;-65
2022/11/04 07:49:14;;;;;;;2.58;0.90;;;9.10;99.90;;;;;;5045785;28;20040;-66
2022/11/04 07:51:40;;;;;;;4.53;0.80;;;8.90;99.90;;;;;;5060780;28;20032;-66
2022/11/04 07:54:06;;;;;;;49.15;7.28;;;8.90;99.90;;;;;;5059912;28;20032;-66
2022/11/04 07:56:32;;;;;;;194.95;14.48;;;9.20;99.90;;;;;;5058978;28;20036;-66
2022/11/04 07:58:57;;;;;;;3.97;1.02;;;9.70;99.90;;;;;;5063425;28;20032;-67
2022/11/04 08:01:24;;;;;;;1496.43;104.30;;;10.70;99.90;;;;;;5046052;28;20072;-66
2022/11/04 08:03:50;;;;;;;83.38;5.90;;;11.60;99.90;;;;;;5029460;28;20488;-66
2022/11/04 08:06:18;;;;;;;143.32;9.30;;;12.50;99.90;;;;;;5059913;28;20091;-67
2022/11/04 08:08:44;;;;;;;22.42;2.25;;;13.40;99.90;;;;;;5062401;28;20059;-66
2022/11/04 08:11:12;;;;;;;1999.90;164.68;;;14.30;99.90;;;;;;5039237;28;20500;-67
2022/11/04 08:13:38;;;;;;;1999.90;223.85;;;15.20;99.90;;;;;;5065142;28;20043;-66
2022/11/04 08:16:08;;;;;;;1595.60;115.75;;;16.00;99.90;;;;;;5056694;28;20079;-67
2022/11/04 08:18:34;;;;;;;699.20;54.25;;;16.60;99.90;;;;;;5055556;28;20048;-66
2022/11/04 08:21:01;;;;;;;116.22;8.93;;;17.20;99.90;;;;;;5058732;28;20501;-66
2022/11/04 08:23:27;;;;;;;653.13;58.40;;;17.70;99.90;;;;;;5045396;28;20480;-66
2022/11/04 08:25:53;;;;;;;232.57;19.77;;;18.20;99.90;;;;;;5042491;28;20471;-66
2022/11/04 08:28:19;;;;;;;367.10;32.55;;;18.60;99.90;;;;;;5055471;28;20182;-67
2022/11/04 08:31:08;;;;;;;81.35;7.15;;;18.80;99.90;;;;;;5060672;28;20077;-66
2022/11/04 08:33:35;;;;;;;7.03;1.35;;;18.80;99.90;;;;;;5063047;28;20036;-67
2022/11/04 08:36:09;;;;;;;237.32;18.15;;;18.90;99.90;;;;;;5041115;28;20045;-66
2022/11/04 08:38:36;;;;;;;140.00;12.20;;;19.50;99.90;;;;;;5059047;28;20048;-67
2022/11/04 08:41:04;;;;;;;120.57;8.98;;;19.90;99.90;;;;;;5063549;28;20041;-66
2022/11/04 08:43:30;;;;;;;3.33;0.80;;;20.20;99.90;;;;;;5059910;28;20129;-66
2022/11/04 08:45:57;;;;;;;4.63;0.60;;;20.60;99.90;;;;;;5062959;28;20503;-66
2022/11/04 08:48:23;;;;;;;17.55;2.35;;;20.80;99.90;;;;;;5061626;28;20114;-67
2022/11/04 08:50:51;;;;;;;2.53;0.60;;;21.10;99.90;;;;;;5062223;28;20040;-66
2022/11/04 08:53:17;;;;;;;8.00;1.35;;;21.20;99.90;;;;;;5059136;28;20067;-67
2022/11/04 08:55:42;;;;;;;2.28;0.77;;;21.40;99.90;;;;;;5065491;28;20184;-67
2022/11/04 08:58:08;;;;;;;2.72;0.85;;;21.40;99.90;;;;;;5060282;28;20518;-66
2022/11/04 09:00:35;;;;;;;4.72;1.30;;;21.50;99.90;;;;;;5063673;28;20063;-67
2022/11/04 09:03:01;;;;;;;3.67;1.10;;;21.10;99.90;;;;;;5056820;28;20045;-67
2022/11/04 09:05:27;;;;;;;5.55;1.45;;;21.00;99.90;;;;;;5061986;28;20077;-66
2022/11/04 09:07:54;;;;;;;2.47;1.52;;;20.70;99.90;;;;;;5058853;28;20040;-66
2022/11/04 09:10:20;;;;;;;2.15;1.60;;;20.00;99.90;;;;;;5062923;28;20562;-67
2022/11/04 09:12:46;;;;;;;4.28;2.00;;;19.20;99.90;;;;;;5061888;28;20120;-66
2022/11/04 09:15:11;;;;;;;4.65;2.78;;;18.40;99.90;;;;;;5064436;28;20066;-66
2022/11/04 09:17:37;;;;;;;5.55;2.90;;;17.80;99.90;;;;;;5060580;28;20399;-66
2022/11/04 09:20:04;;;;;;;4.38;3.97;;;17.20;99.90;;;;;;5061273;28;20060;-66
2022/11/04 09:22:30;;;;;;;5.03;4.53;;;16.50;99.90;;;;;;5068780;28;20471;-66
2022/11/04 09:24:56;;;;;;;5.68;5.07;;;16.80;99.90;;;;;;5063187;28;20044;-66
2022/11/04 09:27:22;;;;;;;6.78;5.50;;;17.60;99.90;;;;;;5062414;28;20099;-66
2022/11/04 09:29:48;;;;;;;6.60;6.00;;;18.50;99.90;;;;;;5064910;28;20045;-67
2022/11/04 09:32:14;;;;;;;6.63;5.93;;;18.90;99.90;;;;;;5065101;28;20041;-67
2022/11/04 09:34:40;;;;;;;7.28;6.60;;;19.50;99.90;;;;;;5058841;28;20542;-66
2022/11/04 09:37:05;;;;;;;8.05;6.60;;;19.70;99.90;;;;;;5064110;28;20040;-66
2022/11/04 09:39:31;;;;;;;8.80;6.70;;;19.00;99.90;;;;;;5059197;28;20480;-66
2022/11/04 09:42:16;;;;;;;7.82;7.03;;;17.80;99.90;;;;;;5051896;28;20456;-66
2022/11/04 09:45:08;;;;;;;9.02;7.20;;;16.70;99.90;;;;;;5065851;28;20037;-66
2022/11/04 09:47:35;;;;;;;7.95;7.15;;;16.80;99.90;;;;;;5061957;28;20036;-67
2022/11/04 09:50:02;;;;;;;7.82;6.90;;;17.40;99.90;;;;;;5060053;28;20133;-66
2022/11/04 09:52:36;;;;;;;7.63;6.82;;;16.90;99.90;;;;;;5048004;28;20045;-67
2022/11/04 09:55:21;;;;;;;7.68;6.88;;;16.10;99.90;;;;;;5063126;28;20036;-67
2022/11/04 09:57:57;;;;;;;9.27;6.90;;;15.80;99.90;;;;;;5050234;28;20369;-66
2022/11/04 10:00:26;;;;;;;7.82;6.28;;;16.60;99.90;;;;;;5060739;28;20056;-67
2022/11/04 10:03:11;;;;;;;9.23;7.57;;;17.30;99.90;;;;;;5065548;28;20479;-67
2022/11/04 10:05:39;;;;;;;9.88;7.78;;;17.70;99.90;;;;;;5048373;28;20056;-66
2022/11/04 10:08:24;;;;;;;8.93;8.13;;;17.90;99.90;;;;;;5063441;28;20107;-67
2022/11/04 10:10:55;;;;;;;8.93;8.13;;;18.20;99.90;;;;;;5063884;28;20056;-67
2022/11/04 10:13:55;;;;;;;8.40;7.60;;;18.40;99.90;;;;;;5060046;28;20116;-67
2022/11/04 10:16:48;;;;;;;9.98;9.00;;;18.90;99.90;;;;;;5040843;28;20044;-68
2022/11/04 10:19:46;;;;;;;8.95;7.38;;;18.70;99.90;;;;;;5057484;28;20100;-67
2022/11/04 10:22:34;;;;;;;9.13;7.13;;;18.30;99.90;;;;;;5057290;28;20112;-67
2022/11/04 10:25:11;;;;;;;8.25;7.05;;;17.30;99.90;;;;;;5047486;28;20043;-67
2022/11/04 10:27:40;;;;;;;7.95;6.88;;;16.60;99.90;;;;;;5064016;28;20508;-67
2022/11/04 10:30:14;;;;;;;8.43;7.63;;;16.00;99.90;;;;;;5067581;28;20056;-67
2022/11/04 10:33:02;;;;;;;9.95;7.75;;;15.40;99.90;;;;;;5058011;28;20064;-67
2022/11/04 10:35:36;;;;;;;9.85;8.75;;;15.10;99.90;;;;;;5066071;28;20032;-67
2022/11/04 10:38:20;;;;;;;11.13;7.72;;;15.60;99.90;;;;;;5067883;28;21385;-68
2022/11/04 10:40:49;;;;;;;9.10;8.10;;;16.20;99.90;;;;;;5062821;28;20041;-67
2022/11/04 10:43:23;;;;;;;10.23;7.40;;;15.90;99.90;;;;;;5061198;28;20139;-66
2022/11/04 10:46:19;;;;;;;10.13;7.43;;;15.40;99.90;;;;;;5063724;28;20041;-67
2022/11/04 10:48:53;;;;;;;8.35;7.05;;;15.10;99.90;;;;;;5049728;28;20055;-67
2022/11/04 10:51:21;;;;;;;;;;;14.90;99.90;;;;;;5064020;28;20045;-67
2022/11/04 10:53:51;;;;;;;8.20;6.13;;;14.60;99.90;;;;;;5063725;28;19927;-67
2022/11/04 10:57:02;;;;;;;10.07;6.55;;;14.50;99.90;;;;;;5067927;28;20041;-67
2022/11/04 10:59:52;;;;;;;8.75;6.63;;;14.20;99.90;;;;;;5046656;28;20048;-67
2022/11/04 11:02:38;;;;;;;9.05;5.93;;;14.00;99.90;;;;;;5063305;28;20060;-67
2022/11/04 11:05:16;;;;;;;7.88;4.90;;;13.90;99.90;;;;;;5058360;28;20120;-66
2022/11/04 11:07:43;;;;;;;13.50;6.32;;;13.80;99.90;;;;;;5058966;28;20082;-67
2022/11/04 11:10:27;;;;;;;9.00;6.75;;;13.70;99.90;;;;;;5062506;28;20102;-67
2022/11/04 11:13:22;;;;;;;9.18;5.47;;;13.60;99.90;;;;;;5057061;28;20025;-67
2022/11/04 11:15:48;;;;;;;;;;;13.40;99.90;;;;;;5057715;28;20033;-66
2022/11/04 11:18:20;;;;;;;8.65;6.25;;;13.10;99.90;;;;;;5064335;28;19975;-66
2022/11/04 11:21:03;;;;;;;9.63;6.40;;;12.90;99.90;;;;;;5064135;28;20507;-66
2022/11/04 11:23:33;;;;;;;9.55;6.90;;;12.80;99.90;;;;;;5063923;28;20045;-66
2022/11/04 11:26:00;;;;;;;10.20;7.03;;;12.70;99.90;;;;;;5056313;28;20134;-66
2022/11/04 11:28:26;;;;;;;12.70;7.43;;;12.70;99.90;;;;;;5057746;28;20052;-67
2022/11/04 11:30:52;;;;;;;7.35;5.55;;;12.70;99.90;;;;;;5064279;28;20033;-67
2022/11/04 11:33:35;;;;;;;6.47;5.15;;;12.70;99.90;;;;;;5061152;28;20123;-68
2022/11/04 11:36:21;;;;;;;9.50;5.00;;;12.80;99.90;;;;;;5059230;28;20045;-67
2022/11/04 11:39:04;;;;;;;7.93;4.60;;;12.80;99.90;;;;;;5056487;28;20074;-67
2022/11/04 11:41:47;;;;;;;8.45;4.45;;;12.90;99.90;;;;;;5058611;28;20088;-67
2022/11/04 11:44:31;;;;;;;6.00;4.60;;;12.80;99.90;;;;;;5025863;28;20384;-68
2022/11/04 11:47:00;;;;;;;11.13;5.67;;;12.80;99.90;;;;;;5062747;28;20032;-67
2022/11/04 11:49:30;;;;;;;10.18;4.60;;;12.70;99.90;;;;;;5055088;28;21311;-67
2022/11/04 11:52:38;;;;;;;8.02;3.60;;;12.70;99.90;;;;;;5046878;28;20052;-66
2022/11/04 11:55:15;;;;;;;7.90;3.65;;;12.80;99.90;;;;;;5062890;28;20457;-67
2022/11/04 11:57:56;;;;;;;4.90;3.72;;;12.80;99.90;;;;;;5061996;28;20486;-67
2022/11/04 12:00:27;;;;;;;8.38;4.00;;;13.00;99.90;;;;;;5060643;28;20096;-67
2022/11/04 12:03:17;;;;;;;7.78;3.53;;;13.10;99.90;;;;;;5056936;28;20028;-68
2022/11/04 12:06:17;;;;;;;7.15;2.00;;;13.30;99.90;;;;;;5056714;28;20068;-67
2022/11/04 12:09:03;;;;;;;6.28;2.45;;;13.30;99.90;;;;;;5058240;28;20040;-67
2022/11/04 12:11:37;;;;;;;7.75;2.40;;;13.30;99.90;;;;;;5065316;28;20052;-68
2022/11/04 12:14:24;;;;;;;4.75;2.15;;;13.40;99.90;;;;;;5060353;28;20036;-66
2022/11/04 12:17:14;;;;;;;4.25;2.05;;;13.50;99.90;;;;;;5061536;28;20093;-67
2022/11/04 12:19:52;;;;;;;6.50;2.15;;;13.70;99.90;;;;;;5056929;28;20040;-67
2022/11/04 12:22:41;;;;;;;4.90;2.08;;;13.80;99.90;;;;;;5062236;28;20037;-67
2022/11/04 12:25:19;;;;;;;6.28;2.35;;;13.90;99.90;;;;;;5059782;28;20045;-67
2022/11/04 12:27:59;;;;;;;6.07;2.80;;;13.90;99.90;;;;;;5061839;28;20416;-67
2022/11/04 12:30:26;;;;;;;4.95;1.73;;;13.90;99.90;;;;;;5059371;28;20041;-68
2022/11/04 12:33:17;;;;;;;4.15;1.13;;;13.90;99.90;;;;;;5049988;28;20517;-67
2022/11/04 12:35:52;;;;;;;5.65;0.88;;;13.60;99.90;;;;;;5043770;28;20052;-68
2022/11/04 12:38:50;;;;;;;4.68;0.75;;;12.90;99.90;;;;;;5061838;28;20044;-68
2022/11/04 12:41:25;;;;;;;3.28;0.50;;;12.20;99.90;;;;;;5033770;28;20452;-68
2022/11/04 12:43:58;;;;;;;5.68;0.60;;;11.60;99.90;;;;;;5059330;28;20072;-68
2022/11/04 12:46:44;;;;;;;4.07;0.60;;;11.20;99.90;;;;;;5059871;28;20041;-68
2022/11/04 12:49:25;;;;;;;4.05;0.60;;;10.80;99.90;;;;;;5063412;28;20032;-68
2022/11/04 12:52:24;;;;;;;3.15;0.40;;;10.60;99.90;;;;;;5063862;28;20468;-67
2022/11/04 12:55:14;;;;;;;3.90;0.50;;;10.40;99.90;;;;;;5047897;28;20041;-69
2022/11/04 12:57:49;;;;;;;4.32;0.60;;;10.30;99.90;;;;;;5051577;28;20038;-69
2022/11/04 13:00:23;;;;;;;3.67;0.57;;;10.20;99.90;;;;;;5048773;28;20040;-68
2022/11/04 13:03:16;;;;;;;3.13;0.40;;;10.20;99.90;;;;;;5046287;28;20765;-69
2022/11/04 13:06:01;;;;;;;5.43;0.60;;;10.10;99.90;;;;;;5044676;28;20044;-69
2022/11/04 13:08:51;;;;;;;2.08;0.35;;;10.10;99.90;;;;;;5047755;28;20076;-69
2022/11/04 13:11:22;;;;;;;5.63;0.55;;;10.10;99.90;;;;;;5079634;28;20511;-69
2022/11/04 13:14:18;;;;;;;5.03;0.40;;;10.10;99.90;;;;;;5064830;28;20475;-69
2022/11/04 13:16:47;;;;;;;3.35;0.50;;;10.10;99.90;;;;;;5058822;28;20138;-69
2022/11/04 13:19:25;;;;;;;4.75;0.60;;;10.10;99.90;;;;;;5050469;28;20048;-68
2022/11/04 13:21:52;;;;;;;3.80;0.50;;;10.20;99.90;;;;;;5045498;28;20154;-68
2022/11/04 13:24:29;;;;;;;7.78;2.60;;;10.20;99.90;;;;;;5061620;28;20078;-68
2022/11/04 13:27:00;;;;;;;7.47;0.98;;;10.30;99.90;;;;;;5041290;28;20391;-68
2022/11/04 13:29:27;;;;;;;7.60;0.88;;;10.40;99.90;;;;;;5033415;28;20234;-69
2022/11/04 13:32:30;;;;;;;4.43;0.55;;;10.50;99.90;;;;;;5058657;28;20048;-68
2022/11/04 13:35:04;;;;;;;9.27;0.85;;;10.60;99.90;;;;;;5049424;28;20041;-68
2022/11/04 13:37:36;;;;;;;;;;;10.60;99.90;;;;;;5047519;28;20045;-68
2022/11/04 13:40:17;;;;;;;4.00;0.52;;;10.50;99.90;;;;;;5046138;28;19921;-68
2022/11/04 13:45:54;;;;;;;5.25;0.70;;;10.50;99.90;;;;;;5066515;28;20406;-69
2022/11/04 13:48:23;;;;;;;3.78;0.60;;;10.40;99.90;;;;;;5065983;28;20484;-69
2022/11/04 13:51:03;;;;;;;7.45;0.80;;;10.50;99.90;;;;;;5046432;28;20044;-69
2022/11/04 13:53:43;;;;;;;4.10;0.90;;;10.60;99.90;;;;;;5048295;28;20040;-68